createdAt,value
2018-10-19T00:00:26.006Z,11.38
2018-10-19T00:02:55.099Z,11.45
2018-10-19T00:05:23.434Z,11.43
2018-10-19T00:07:51.729Z,11.48
2018-10-19T00:10:20.034Z,11.36
2018-10-19T00:12:48.381Z,11.31
2018-10-19T00:15:17.235Z,11.46
2018-10-19T00:17:45.394Z,11.42
2018-10-19T00:20:13.715Z,11.39
2018-10-19T00:22:42.039Z,11.25
2018-10-19T00:25:10.382Z,11.29
2018-10-19T00:27:39.008Z,11.31
2018-10-19T00:30:08.761Z,11.30
2018-10-19T00:32:37.128Z,11.21
2018-10-19T00:35:06.170Z,11.13
2018-10-19T00:37:35.037Z,11.15
2018-10-19T00:40:03.500Z,11.12
2018-10-19T00:42:31.827Z,11.12
2018-10-19T00:45:00.269Z,11.16
2018-10-19T00:47:28.830Z,11.23
2018-10-19T00:49:57.528Z,11.31
2018-10-19T00:52:25.863Z,11.17
2018-10-19T00:54:54.290Z,11.07
2018-10-19T00:57:22.647Z,11.15
2018-10-19T00:59:51.146Z,11.14
2018-10-19T01:02:19.780Z,11.06
2018-10-19T01:04:48.419Z,11.06
2018-10-19T01:07:16.782Z,11.03
2018-10-19T01:09:45.096Z,11.02
2018-10-19T01:12:20.307Z,11.01
2018-10-19T01:14:48.734Z,11.07
2018-10-19T01:17:17.075Z,11.03
2018-10-19T01:19:45.487Z,10.98
2018-10-19T01:22:14.060Z,10.89
2018-10-19T01:24:42.960Z,10.84
2018-10-19T01:27:11.430Z,10.83
2018-10-19T01:29:39.739Z,10.81
2018-10-19T01:32:08.134Z,10.70
2018-10-19T01:34:36.456Z,10.77
2018-10-19T01:37:05.781Z,10.64
2018-10-19T01:39:34.073Z,10.69
2018-10-19T01:42:02.392Z,10.62
2018-10-19T01:44:32.230Z,10.62
2018-10-19T01:47:00.670Z,10.52
2018-10-19T01:49:29.019Z,10.48
2018-10-19T01:51:57.337Z,10.39
2018-10-19T01:54:26.031Z,10.45
2018-10-19T01:56:54.392Z,10.51
2018-10-19T01:59:22.711Z,10.42
2018-10-19T02:01:51.168Z,10.41
2018-10-19T02:04:19.891Z,10.30
2018-10-19T02:06:48.263Z,10.27
2018-10-19T02:09:16.973Z,10.18
2018-10-19T02:11:45.288Z,10.13
2018-10-19T02:14:13.870Z,10.07
2018-10-19T02:16:42.560Z,10.11
2018-10-19T02:19:10.906Z,10.04
2018-10-19T02:21:39.219Z,10.05
2018-10-19T02:24:07.487Z,9.99
2018-10-19T02:26:36.290Z,9.96
2018-10-19T02:29:05.011Z,9.89
2018-10-19T02:31:33.411Z,9.85
2018-10-19T02:34:01.668Z,9.76
2018-10-19T02:36:30.106Z,9.84
2018-10-19T02:38:58.899Z,9.82
2018-10-19T02:41:27.337Z,9.72
2018-10-19T02:43:56.590Z,9.75
2018-10-19T02:46:25.537Z,9.68
2018-10-19T02:48:53.896Z,9.61
2018-10-19T02:51:22.198Z,9.54
2018-10-19T02:53:50.576Z,9.54
2018-10-19T02:56:19.067Z,9.45
2018-10-19T02:58:47.605Z,9.43
2018-10-19T03:01:16.675Z,9.42
2018-10-19T03:03:44.985Z,9.28
2018-10-19T03:06:13.652Z,9.30
2018-10-19T03:08:43.659Z,9.33
2018-10-19T03:11:12.106Z,9.35
2018-10-19T03:13:40.536Z,9.26
2018-10-19T03:16:08.990Z,9.24
2018-10-19T03:18:37.322Z,9.23
2018-10-19T03:21:06.086Z,9.15
2018-10-19T03:23:34.413Z,9.24
2018-10-19T03:26:02.726Z,9.21
2018-10-19T03:28:31.031Z,9.27
2018-10-19T03:30:59.396Z,9.31
2018-10-19T03:33:28.009Z,9.32
2018-10-19T03:35:56.328Z,9.24
2018-10-19T03:38:24.628Z,9.26
2018-10-19T03:40:52.972Z,9.32
2018-10-19T03:43:21.284Z,9.34
2018-10-19T03:45:49.604Z,9.34
2018-10-19T03:48:17.909Z,9.31
2018-10-19T03:50:46.281Z,9.28
2018-10-19T03:53:14.776Z,9.38
2018-10-19T03:55:43.065Z,9.41
2018-10-19T03:58:11.522Z,9.42
2018-10-19T04:03:36.446Z,9.42
2018-10-19T04:06:05.575Z,9.43
2018-10-19T04:08:34.850Z,9.37
2018-10-19T04:11:03.984Z,9.24
2018-10-19T04:13:33.125Z,9.23
2018-10-19T04:16:02.379Z,9.21
2018-10-19T04:18:31.525Z,9.11
2018-10-19T04:21:00.762Z,9.02
2018-10-19T04:23:29.920Z,8.98
2018-10-19T04:25:59.171Z,8.88
2018-10-19T04:28:28.419Z,8.84
2018-10-19T04:30:57.967Z,8.85
2018-10-19T04:33:27.632Z,8.90
2018-10-19T04:35:56.976Z,8.81
2018-10-19T04:38:26.013Z,8.75
2018-10-19T04:40:55.380Z,8.80
2018-10-19T04:43:25.673Z,8.78
2018-10-19T04:45:54.980Z,8.79
2018-10-19T04:48:24.153Z,8.74
2018-10-19T04:50:53.445Z,8.71
2018-10-19T04:53:22.656Z,8.76
2018-10-19T04:55:51.982Z,8.81
2018-10-19T04:58:21.081Z,8.82
2018-10-19T05:00:50.313Z,8.81
2018-10-19T05:03:19.745Z,8.79
2018-10-19T05:05:49.086Z,8.84
2018-10-19T05:08:18.315Z,8.87
2018-10-19T05:10:47.512Z,8.89
2018-10-19T05:13:16.759Z,8.85
2018-10-19T05:15:45.976Z,8.87
2018-10-19T05:18:15.285Z,8.89
2018-10-19T05:20:44.698Z,8.87
2018-10-19T05:23:14.335Z,8.78
2018-10-19T05:25:43.732Z,8.77
2018-10-19T05:28:13.280Z,8.84
2018-10-19T05:30:42.706Z,8.86
2018-10-19T05:33:12.131Z,8.84
2018-10-19T05:35:41.752Z,8.80
2018-10-19T05:38:12.534Z,8.77
2018-10-19T05:40:41.858Z,8.79
2018-10-19T05:43:11.136Z,8.65
2018-10-19T05:45:40.244Z,8.67
2018-10-19T05:48:09.528Z,8.67
2018-10-19T05:50:38.884Z,8.53
2018-10-19T05:53:07.991Z,8.66
2018-10-19T05:55:37.138Z,8.52
2018-10-19T05:58:07.145Z,8.57
2018-10-19T06:00:37.571Z,8.61
2018-10-19T06:03:09.867Z,8.67
2018-10-19T06:05:39.945Z,8.55
2018-10-19T06:08:09.559Z,8.54
2018-10-19T06:10:38.949Z,8.48
2018-10-19T06:13:09.367Z,8.53
2018-10-19T06:15:39.817Z,8.50
2018-10-19T06:18:09.328Z,8.49
2018-10-19T06:20:41.432Z,8.47
2018-10-19T06:23:10.825Z,8.58
2018-10-19T06:25:40.105Z,8.57
2018-10-19T06:28:09.691Z,8.53
2018-10-19T06:30:39.054Z,8.55
2018-10-19T06:33:08.571Z,8.55
2018-10-19T06:35:38.022Z,8.57
2018-10-19T06:38:07.934Z,8.53
2018-10-19T06:40:37.175Z,8.61
2018-10-19T06:43:06.374Z,8.64
2018-10-19T06:45:35.622Z,8.61
2018-10-19T06:48:04.863Z,8.74
2018-10-19T06:50:34.128Z,8.76
2018-10-19T06:53:03.236Z,8.75
2018-10-19T06:55:32.432Z,8.76
2018-10-19T06:58:01.575Z,8.77
2018-10-19T07:00:30.913Z,8.85
2018-10-19T07:03:00.331Z,8.86
2018-10-19T07:05:29.698Z,8.88
2018-10-19T07:07:59.132Z,8.90
2018-10-19T07:10:28.320Z,8.93
2018-10-19T07:12:57.738Z,9.04
2018-10-19T07:15:27.020Z,8.95
2018-10-19T07:17:56.316Z,8.90
2018-10-19T07:20:25.678Z,9.31
2018-10-19T07:22:55.101Z,9.13
2018-10-19T07:25:24.420Z,9.18
2018-10-19T07:27:53.508Z,9.07
2018-10-19T07:30:22.823Z,9.24
2018-10-19T07:32:52.140Z,9.25
2018-10-19T07:35:21.453Z,9.19
2018-10-19T07:37:50.727Z,9.39
2018-10-19T07:40:19.936Z,9.32
2018-10-19T07:42:49.305Z,9.43
2018-10-19T07:45:18.684Z,9.45
2018-10-19T07:47:48.128Z,9.62
2018-10-19T07:50:17.270Z,9.63
2018-10-19T07:52:46.690Z,9.82
2018-10-19T07:55:16.132Z,9.86
2018-10-19T07:57:45.656Z,9.81
2018-10-19T08:00:15.546Z,9.88
2018-10-19T08:02:44.637Z,10.09
2018-10-19T08:05:13.956Z,10.05
2018-10-19T08:07:43.035Z,10.22
2018-10-19T08:10:12.291Z,10.32
2018-10-19T08:12:41.461Z,10.28
2018-10-19T08:15:10.744Z,10.49
2018-10-19T08:17:40.105Z,10.63
2018-10-19T08:20:09.801Z,10.52
2018-10-19T08:22:39.044Z,10.65
2018-10-19T08:25:08.680Z,10.61
2018-10-19T08:27:37.867Z,10.52
2018-10-19T08:30:07.192Z,10.77
2018-10-19T08:32:36.559Z,10.57
2018-10-19T08:35:06.374Z,10.57
2018-10-19T08:37:35.627Z,10.75
2018-10-19T08:40:05.669Z,10.63
2018-10-19T08:42:34.968Z,10.76
2018-10-19T08:45:04.264Z,10.68
2018-10-19T08:47:33.456Z,10.61
2018-10-19T08:50:02.729Z,10.74
2018-10-19T08:52:31.898Z,10.62
2018-10-19T08:55:01.117Z,10.74
2018-10-19T08:57:30.283Z,10.81
2018-10-19T08:59:59.387Z,10.99
2018-10-19T09:02:28.692Z,11.01
2018-10-19T09:04:57.931Z,10.98
2018-10-19T09:07:27.510Z,11.17
2018-10-19T09:09:56.883Z,11.12
2018-10-19T09:12:26.253Z,11.01
2018-10-19T09:14:56.919Z,11.34
2018-10-19T09:17:27.406Z,11.13
2018-10-19T09:19:56.576Z,11.25
2018-10-19T09:22:25.843Z,11.31
2018-10-19T09:24:55.105Z,11.67
2018-10-19T09:27:24.856Z,11.60
2018-10-19T09:29:54.040Z,11.81
2018-10-19T09:32:23.377Z,12.05
2018-10-19T09:34:52.763Z,12.07
2018-10-19T09:37:21.966Z,12.15
2018-10-19T09:39:55.226Z,12.21
2018-10-19T09:42:24.784Z,12.07
2018-10-19T09:44:54.046Z,12.20
2018-10-19T09:47:23.308Z,12.50
2018-10-19T09:49:52.512Z,12.60
2018-10-19T09:52:21.656Z,12.45
2018-10-19T09:54:50.871Z,12.39
2018-10-19T09:57:20.147Z,12.53
2018-10-19T09:59:49.519Z,12.82
2018-10-19T10:02:18.634Z,12.76
2018-10-19T10:04:47.915Z,13.09
2018-10-19T10:07:17.178Z,13.15
2018-10-19T10:09:46.499Z,13.17
2018-10-19T10:12:15.777Z,13.02
2018-10-19T10:14:45.146Z,13.10
2018-10-19T10:17:14.465Z,13.00
2018-10-19T10:19:43.961Z,13.10
2018-10-19T10:22:13.458Z,13.08
2018-10-19T10:24:42.786Z,12.96
2018-10-19T10:27:11.971Z,13.10
2018-10-19T10:29:41.709Z,13.22
2018-10-19T10:32:11.219Z,13.10
2018-10-19T10:34:41.903Z,13.31
2018-10-19T10:37:11.712Z,13.17
2018-10-19T10:39:40.678Z,13.78
2018-10-19T10:42:09.978Z,14.90
2018-10-19T10:44:39.477Z,14.22
2018-10-19T10:47:09.432Z,14.24
2018-10-19T10:49:38.767Z,14.22
2018-10-19T10:52:08.152Z,14.12
2018-10-19T10:54:37.548Z,13.88
2018-10-19T10:57:07.148Z,13.82
2018-10-19T10:59:36.537Z,13.85
2018-10-19T11:02:05.922Z,13.75
2018-10-19T11:04:34.945Z,13.92
2018-10-19T11:07:04.235Z,13.44
2018-10-19T11:09:33.532Z,13.65
2018-10-19T11:12:02.637Z,13.66
2018-10-19T11:14:31.864Z,13.71
2018-10-19T11:17:01.241Z,13.99
2018-10-19T11:19:30.517Z,15.39
2018-10-19T11:21:59.773Z,15.50
2018-10-19T11:24:29.239Z,15.18
2018-10-19T11:26:58.450Z,14.60
2018-10-19T11:29:27.601Z,14.51
2018-10-19T11:31:56.776Z,14.68
2018-10-19T11:34:26.105Z,14.62
2018-10-19T11:36:55.478Z,14.53
2018-10-19T11:39:24.706Z,15.46
2018-10-19T11:41:53.924Z,16.75
2018-10-19T11:44:23.081Z,17.99
2018-10-19T11:46:52.324Z,18.79
2018-10-19T11:49:21.625Z,17.81
2018-10-19T11:51:50.920Z,17.92
2018-10-19T11:54:20.192Z,16.09
2018-10-19T11:56:49.542Z,16.92
2018-10-19T11:59:18.679Z,16.23
2018-10-19T12:01:47.931Z,16.57
2018-10-19T12:04:20.064Z,16.22
2018-10-19T12:06:49.198Z,16.94
2018-10-19T12:09:18.355Z,16.09
2018-10-19T12:11:47.405Z,15.84
2018-10-19T12:14:16.539Z,14.82
2018-10-19T12:16:46.058Z,15.17
2018-10-19T12:19:15.259Z,14.87
2018-10-19T12:21:44.510Z,15.28
2018-10-19T12:24:13.840Z,15.15
2018-10-19T12:26:43.179Z,15.05
2018-10-19T12:29:12.367Z,14.95
2018-10-19T12:31:43.375Z,14.92
2018-10-19T12:34:12.425Z,14.67
2018-10-19T12:36:41.770Z,14.47
2018-10-19T12:39:11.565Z,14.58
2018-10-19T12:41:40.853Z,15.04
2018-10-19T12:44:10.016Z,14.77
2018-10-19T12:46:51.032Z,14.69
2018-10-19T12:49:22.008Z,14.90
2018-10-19T12:51:51.245Z,15.66
2018-10-19T12:54:20.396Z,15.55
2018-10-19T12:56:49.879Z,16.02
2018-10-19T12:59:19.129Z,15.46
2018-10-19T13:01:48.528Z,15.32
2018-10-19T13:04:26.791Z,15.59
2018-10-19T13:06:56.149Z,15.02
2018-10-19T13:09:25.351Z,15.22
2018-10-19T13:11:54.535Z,14.73
2018-10-19T13:14:23.720Z,14.71
2018-10-19T13:16:53.054Z,14.87
2018-10-19T13:19:22.395Z,14.28
2018-10-19T13:21:51.587Z,16.28
2018-10-19T13:24:20.917Z,15.41
2018-10-19T13:26:50.255Z,14.70
2018-10-19T13:29:19.412Z,14.75
2018-10-19T13:31:48.805Z,14.55
2018-10-19T13:34:18.175Z,14.50
2018-10-19T13:36:48.309Z,14.34
2018-10-19T13:39:17.629Z,14.17
2018-10-19T13:41:46.825Z,14.12
2018-10-19T13:44:16.128Z,13.94
2018-10-19T13:46:45.372Z,14.15
2018-10-19T13:49:14.519Z,14.00
2018-10-19T13:51:43.760Z,14.15
2018-10-19T13:54:12.837Z,14.04
2018-10-19T13:56:42.152Z,14.12
2018-10-19T13:59:11.570Z,13.98
2018-10-19T14:01:40.751Z,13.92
2018-10-19T14:04:09.621Z,13.75
2018-10-19T14:06:38.752Z,13.74
2018-10-19T14:09:10.305Z,13.56
2018-10-19T14:11:40.046Z,13.46
2018-10-19T14:14:09.272Z,13.61
2018-10-19T14:16:38.627Z,13.59
2018-10-19T14:19:07.998Z,13.38
2018-10-19T14:21:36.883Z,13.50
2018-10-19T14:24:06.113Z,13.56
2018-10-19T14:26:35.527Z,13.62
2018-10-19T14:29:05.059Z,13.36
2018-10-19T14:31:34.402Z,13.23
2018-10-19T14:34:03.696Z,13.22
2018-10-19T14:36:32.883Z,13.22
2018-10-19T14:39:02.123Z,13.29
2018-10-19T14:41:31.493Z,13.39
2018-10-19T14:44:00.808Z,13.10
2018-10-19T14:46:30.087Z,13.39
2018-10-19T14:49:00.079Z,13.16
2018-10-19T14:51:29.648Z,13.07
2018-10-19T14:53:59.627Z,13.18
2018-10-19T14:56:28.940Z,12.99
2018-10-19T14:58:58.347Z,12.92
2018-10-19T15:01:27.566Z,12.83
2018-10-19T15:03:56.816Z,13.12
2018-10-19T15:06:26.056Z,12.93
2018-10-19T15:08:55.166Z,12.52
2018-10-19T15:11:25.003Z,12.73
2018-10-19T15:13:53.825Z,12.47
2018-10-19T15:16:23.056Z,12.43
2018-10-19T15:18:52.433Z,12.37
2018-10-19T15:21:21.737Z,12.41
2018-10-19T15:23:51.235Z,12.31
2018-10-19T15:26:20.463Z,12.11
2018-10-19T15:28:49.844Z,12.09
2018-10-19T15:31:19.379Z,12.14
2018-10-19T15:33:48.940Z,12.02
2018-10-19T15:36:18.175Z,12.06
2018-10-19T15:38:47.437Z,11.85
2018-10-19T15:41:16.683Z,11.75
2018-10-19T15:43:45.941Z,11.90
2018-10-19T15:46:15.418Z,11.61
2018-10-19T15:48:44.794Z,11.50
2018-10-19T15:51:14.124Z,11.39
2018-10-19T15:53:43.429Z,11.25
2018-10-19T15:56:12.743Z,11.12
2018-10-19T15:58:42.023Z,11.17
2018-10-19T16:01:11.264Z,10.96
2018-10-19T16:03:40.611Z,10.83
2018-10-19T16:06:09.979Z,10.72
2018-10-19T16:08:39.319Z,10.57
2018-10-19T16:11:08.697Z,10.42
2018-10-19T16:13:38.123Z,10.30
2018-10-19T16:16:07.889Z,10.22
2018-10-19T16:18:37.168Z,10.10
2018-10-19T16:21:06.520Z,10.04
2018-10-19T16:23:35.768Z,9.96
2018-10-19T16:26:05.128Z,9.85
2018-10-19T16:28:34.494Z,9.76
2018-10-19T16:31:03.800Z,9.70
2018-10-19T16:33:32.848Z,9.59
2018-10-19T16:36:02.522Z,9.53
2018-10-19T16:38:31.748Z,9.46
2018-10-19T16:41:00.981Z,9.34
2018-10-19T16:43:30.149Z,9.24
2018-10-19T16:45:59.367Z,9.16
2018-10-19T16:48:28.568Z,9.07
2018-10-19T16:50:57.697Z,8.99
2018-10-19T16:53:26.972Z,8.88
2018-10-19T16:55:56.348Z,8.70
2018-10-19T16:58:25.982Z,8.62
2018-10-19T17:00:55.159Z,8.58
2018-10-19T17:03:24.382Z,8.55
2018-10-19T17:05:53.831Z,8.45
2018-10-19T17:08:22.884Z,8.48
2018-10-19T17:10:52.107Z,8.43
2018-10-19T17:13:21.487Z,8.37
2018-10-19T17:15:50.928Z,8.30
2018-10-19T17:18:20.265Z,8.17
2018-10-19T17:20:49.392Z,8.26
2018-10-19T17:23:18.427Z,8.19
2018-10-19T17:25:47.552Z,8.11
2018-10-19T17:28:16.857Z,8.03
2018-10-19T17:30:46.077Z,7.98
2018-10-19T17:33:15.512Z,7.91
2018-10-19T17:35:44.759Z,7.89
2018-10-19T17:38:13.959Z,7.78
2018-10-19T17:40:43.252Z,7.77
2018-10-19T17:43:12.393Z,7.65
2018-10-19T17:45:41.768Z,7.62
2018-10-19T17:48:11.098Z,7.58
2018-10-19T17:50:40.617Z,7.49
2018-10-19T17:53:09.823Z,7.43
2018-10-19T17:55:39.063Z,7.36
2018-10-19T17:58:08.219Z,7.28
2018-10-19T18:00:37.718Z,7.29
2018-10-19T18:03:07.311Z,7.21
2018-10-19T18:05:36.571Z,7.24
2018-10-19T18:08:05.552Z,7.16
2018-10-19T18:10:34.664Z,7.15
2018-10-19T18:13:04.029Z,7.18
2018-10-19T18:15:34.539Z,7.12
2018-10-19T18:18:04.053Z,6.98
2018-10-19T18:20:33.623Z,6.89
2018-10-19T18:23:03.025Z,6.88
2018-10-19T18:25:32.214Z,6.81
2018-10-19T18:28:01.492Z,6.77
2018-10-19T18:30:30.829Z,6.79
2018-10-19T18:32:59.965Z,6.69
2018-10-19T18:35:29.093Z,6.65
2018-10-19T18:37:58.320Z,6.61
2018-10-19T18:40:27.504Z,6.55
2018-10-19T18:42:57.128Z,6.55
2018-10-19T18:45:26.528Z,6.53
2018-10-19T18:47:55.682Z,6.51
2018-10-19T18:50:25.166Z,6.43
2018-10-19T18:52:54.271Z,6.37
2018-10-19T18:55:23.500Z,6.33
2018-10-19T18:57:52.874Z,6.22
2018-10-19T19:00:29.748Z,4.61
2018-10-19T19:03:13.690Z,6.22
2018-10-19T19:05:42.911Z,6.14
2018-10-19T19:08:12.144Z,5.95
2018-10-19T19:10:41.424Z,6.01
2018-10-19T19:13:15.487Z,6.04
2018-10-19T19:15:44.719Z,6.03
2018-10-19T19:18:13.891Z,6.00
2018-10-19T19:20:44.045Z,5.92
2018-10-19T19:23:13.166Z,5.88
2018-10-19T19:25:47.367Z,5.92
2018-10-19T19:28:16.572Z,5.87
2018-10-19T19:30:45.662Z,5.90
2018-10-19T19:33:20.027Z,5.86
2018-10-19T19:35:49.333Z,5.86
2018-10-19T19:38:18.351Z,5.80
2018-10-19T19:40:52.797Z,5.71
2018-10-19T19:43:21.967Z,5.73
2018-10-19T19:45:51.316Z,5.69
2018-10-19T19:48:25.531Z,5.58
2018-10-19T19:50:54.891Z,5.64
2018-10-19T19:53:24.054Z,5.48
2018-10-19T19:55:53.193Z,5.45
2018-10-19T19:58:22.557Z,5.43
2018-10-19T20:00:51.788Z,5.45
2018-10-19T20:03:21.061Z,5.36
2018-10-19T20:05:50.344Z,5.35
2018-10-19T20:08:19.691Z,5.40
2018-10-19T20:10:48.676Z,5.37
2018-10-19T20:13:17.939Z,5.30
2018-10-19T20:15:47.286Z,5.30
2018-10-19T20:18:16.606Z,5.23
2018-10-19T20:20:45.795Z,5.23
2018-10-19T20:23:15.109Z,5.21
2018-10-19T20:25:44.402Z,5.21
2018-10-19T20:28:13.662Z,5.16
2018-10-19T20:30:42.870Z,5.08
2018-10-19T20:33:12.162Z,5.05
2018-10-19T20:35:41.412Z,5.07
2018-10-19T20:38:10.703Z,5.04
2018-10-19T20:40:39.973Z,4.95
2018-10-19T20:43:09.262Z,5.00
2018-10-19T20:45:38.475Z,5.07
2018-10-19T20:48:07.662Z,4.98
2018-10-19T20:50:36.956Z,4.99
2018-10-19T20:53:06.449Z,5.01
2018-10-19T20:55:35.579Z,4.97
2018-10-19T20:58:04.632Z,4.89
2018-10-19T21:00:33.980Z,4.84
2018-10-19T21:03:03.248Z,4.86
2018-10-19T21:05:41.487Z,4.79
2018-10-19T21:08:10.937Z,4.62
2018-10-19T21:10:40.090Z,4.69
2018-10-19T21:13:09.069Z,4.72
2018-10-19T21:15:38.281Z,4.67
2018-10-19T21:18:07.663Z,4.72
2018-10-19T21:20:36.875Z,4.69
2018-10-19T21:23:06.195Z,4.62
2018-10-19T21:25:35.565Z,4.50
2018-10-19T21:28:04.848Z,4.51
2018-10-19T21:30:33.970Z,4.41
2018-10-19T21:33:03.559Z,4.47
2018-10-19T21:35:32.868Z,4.38
2018-10-19T21:38:02.254Z,4.32
2018-10-19T21:40:31.582Z,4.45
2018-10-19T21:43:00.640Z,4.52
2018-10-19T21:45:29.906Z,4.48
2018-10-19T21:47:59.136Z,4.30
2018-10-19T21:50:28.357Z,4.29
2018-10-19T21:52:57.530Z,4.21
2018-10-19T21:55:26.943Z,4.29
2018-10-19T21:57:56.334Z,4.20
2018-10-19T22:00:25.672Z,4.21
2018-10-19T22:02:54.834Z,4.15
2018-10-19T22:05:24.060Z,4.19
2018-10-19T22:07:53.382Z,4.22
2018-10-19T22:10:23.217Z,4.18
2018-10-19T22:12:52.593Z,4.08
2018-10-19T22:15:21.789Z,4.05
2018-10-19T22:17:50.937Z,4.02
2018-10-19T22:20:20.314Z,3.92
2018-10-19T22:22:49.543Z,3.96
2018-10-19T22:25:19.186Z,3.89
2018-10-19T22:27:48.571Z,3.95
2018-10-19T22:30:17.795Z,3.93
2018-10-19T22:32:47.045Z,3.86
2018-10-19T22:35:16.348Z,3.84
2018-10-19T22:37:45.483Z,3.77
2018-10-19T22:40:14.680Z,3.70
2018-10-19T22:42:43.888Z,3.63
2018-10-19T22:45:13.104Z,3.60
2018-10-19T22:47:42.258Z,3.60
2018-10-19T22:50:11.476Z,3.61
2018-10-19T22:52:40.664Z,3.66
2018-10-19T22:55:10.159Z,3.57
2018-10-19T22:57:39.356Z,3.48
2018-10-19T23:00:09.367Z,3.66
2018-10-19T23:02:38.664Z,3.62
2018-10-19T23:05:07.990Z,3.71
2018-10-19T23:07:37.193Z,3.51
2018-10-19T23:10:07.284Z,3.52
2018-10-19T23:12:36.846Z,3.64
2018-10-19T23:15:06.603Z,3.45
2018-10-19T23:17:35.720Z,3.48
2018-10-19T23:20:04.976Z,3.39
2018-10-19T23:22:34.096Z,3.47
2018-10-19T23:25:03.370Z,3.56
2018-10-19T23:27:32.622Z,3.41
2018-10-19T23:31:04.653Z,3.34
2018-10-19T23:33:34.008Z,3.29
2018-10-19T23:36:03.618Z,2.89
2018-10-19T23:38:32.647Z,3.20
2018-10-19T23:41:01.955Z,3.29
2018-10-19T23:43:31.269Z,3.26
2018-10-19T23:46:00.631Z,3.18
2018-10-19T23:48:29.976Z,3.20
2018-10-19T23:50:59.098Z,3.21
2018-10-19T23:53:28.478Z,3.16
2018-10-19T23:55:57.703Z,3.14
2018-10-19T23:58:26.882Z,3.12
